Time;durP1;ratioP1;P1;durP2;ratioP2;P2;SDS_P1;SDS_P2;PMS_P1;PMS_P2;Temp;Humidity;BMP_temperature;BMP_pressure;BME280_temperature;BME280_humidity;BME280_pressure;Samples;Min_cycle;Max_cycle;Signal;HPM_P1;HPM_P2
2022/09/23 00:02:47;;;;;;;5.53;5.03;;;11.50;98.10;;;;;;10379250;28;20296;-78
2022/09/23 00:07:49;;;;;;;4.03;3.83;;;11.60;98.40;;;;;;10417242;28;20214;-77
2022/09/23 00:12:51;;;;;;;4.63;4.33;;;11.50;98.40;;;;;;10378516;28;20740;-78
2022/09/23 00:17:55;;;;;;;4.63;4.43;;;11.60;97.90;;;;;;10399169;28;20690;-78
2022/09/23 00:22:57;;;;;;;4.97;4.53;;;11.50;97.40;;;;;;10379992;28;20291;-78
2022/09/23 00:27:59;;;;;;;5.67;5.20;;;11.50;98.10;;;;;;10416174;28;20222;-78
2022/09/23 00:33:02;;;;;;;4.83;4.53;;;11.40;97.70;;;;;;10381572;28;20226;-78
2022/09/23 00:38:04;;;;;;;4.83;4.53;;;11.40;98.10;;;;;;10414339;28;20689;-78
2022/09/23 00:43:09;;;;;;;4.87;4.57;;;11.40;97.90;;;;;;10382910;28;20225;-78
2022/09/23 00:48:16;;;;;;;4.27;4.07;;;11.30;98.40;;;;;;10432413;28;20213;-78
2022/09/23 00:53:23;;;;;;;4.20;4.00;;;11.30;98.50;;;;;;10367364;28;20227;-77
2022/09/23 00:58:28;;;;;;;4.43;4.13;;;11.30;98.00;;;;;;10401921;28;20224;-77
2022/09/23 01:03:32;;;;;;;4.30;4.10;;;11.30;98.40;;;;;;10410344;28;20618;-78
2022/09/23 01:08:34;;;;;;;4.50;4.30;;;11.30;98.60;;;;;;10379124;28;20675;-77
2022/09/23 01:13:43;;;;;;;4.43;4.23;;;11.30;97.70;;;;;;10413315;28;20222;-78
2022/09/23 01:18:56;;;;;;;4.63;4.33;;;11.20;98.10;;;;;;10377324;28;20337;-78
2022/09/23 01:24:33;;;;;;;5.30;4.90;;;11.20;97.50;;;;;;10413409;28;20293;-78
2022/09/23 01:30:02;;;;;;;15.20;11.03;;;11.20;98.30;;;;;;10374333;28;20288;-79
2022/09/23 01:35:10;;;;;;;8.60;6.60;;;11.10;98.40;;;;;;10414314;28;20206;-80
2022/09/23 01:40:19;;;;;;;6.90;6.20;;;11.10;97.90;;;;;;10381570;28;20293;-79
2022/09/23 01:45:28;;;;;;;5.50;5.10;;;11.10;98.00;;;;;;10412572;28;20268;-78
2022/09/23 01:56:01;;;;;;;4.30;4.00;;;11.00;97.60;;;;;;10416173;28;20292;-79
2022/09/23 02:01:06;;;;;;;5.40;5.00;;;10.90;98.00;;;;;;10409382;28;20205;-79
2022/09/23 02:06:14;;;;;;;13.23;8.60;;;10.90;98.10;;;;;;10385781;28;20214;-80
2022/09/23 02:11:17;;;;;;;5.30;5.00;;;10.90;98.00;;;;;;10408858;28;20194;-77
2022/09/23 02:16:26;;;;;;;5.40;5.00;;;10.80;97.80;;;;;;10386378;28;20222;-79
2022/09/23 02:21:34;;;;;;;5.97;5.57;;;10.80;98.70;;;;;;10410013;28;20210;-80
2022/09/23 02:26:41;;;;;;;5.00;4.60;;;10.80;98.70;;;;;;10391502;28;20216;-80
2022/09/23 02:31:48;;;;;;;5.97;5.57;;;10.80;97.90;;;;;;10407218;28;20245;-80
2022/09/23 02:37:02;;;;;;;5.40;5.00;;;10.80;98.30;;;;;;10388213;28;20244;-80
2022/09/23 02:42:09;;;;;;;5.73;5.43;;;10.70;98.60;;;;;;10405487;28;20209;-80
2022/09/23 02:47:11;;;;;;;5.53;5.13;;;10.70;98.10;;;;;;10389320;28;20202;-79
2022/09/23 02:52:16;;;;;;;6.00;5.60;;;10.70;98.50;;;;;;10407295;28;20191;-79
2022/09/23 02:57:19;;;;;;;6.07;5.67;;;10.70;98.50;;;;;;10392412;28;20698;-80
2022/09/23 03:02:38;;;;;;;6.50;6.00;;;10.70;98.70;;;;;;10391210;28;20639;-79
2022/09/23 03:07:49;;;;;;;6.70;6.10;;;10.60;98.60;;;;;;10412779;28;20705;-80
2022/09/23 03:13:04;;;;;;;6.03;5.53;;;10.60;99.00;;;;;;10399842;28;20208;-78
2022/09/23 03:18:13;;;;;;;6.43;5.93;;;10.60;98.70;;;;;;10409028;28;20214;-80
2022/09/23 03:23:22;;;;;;;7.40;6.80;;;10.60;99.30;;;;;;10399545;28;20520;-80
2022/09/23 03:28:26;;;;;;;6.80;6.27;;;10.60;99.30;;;;;;10407533;28;20211;-79
2022/09/23 03:33:28;;;;;;;6.43;6.03;;;10.60;98.70;;;;;;10404462;28;20713;-78
2022/09/23 03:38:37;;;;;;;6.60;6.20;;;10.60;98.40;;;;;;10410913;28;20301;-79
2022/09/23 03:43:40;;;;;;;6.67;6.23;;;10.60;98.00;;;;;;10392506;28;20198;-79
2022/09/23 03:48:43;;;;;;;7.80;7.40;;;10.50;99.10;;;;;;10408804;28;20239;-79
2022/09/23 03:53:47;;;;;;;9.87;8.93;;;10.50;99.00;;;;;;10400075;28;20204;-80
2022/09/23 03:58:49;;;;;;;7.80;7.13;;;10.50;99.70;;;;;;10408388;28;20580;-79
2022/09/23 04:03:52;;;;;;;7.43;7.00;;;10.50;99.30;;;;;;10403827;28;20285;-77
2022/09/23 04:08:57;;;;;;;7.67;7.27;;;10.50;98.80;;;;;;10402867;28;20208;-80
2022/09/23 04:13:59;;;;;;;8.30;7.63;;;10.50;98.70;;;;;;10406109;28;20209;-77
2022/09/23 04:19:01;;;;;;;8.60;7.60;;;10.40;99.00;;;;;;10392736;28;20228;-78
2022/09/23 04:24:05;;;;;;;8.43;7.93;;;10.40;99.50;;;;;;10408092;28;20202;-80
2022/09/23 04:29:09;;;;;;;8.20;7.60;;;10.40;99.30;;;;;;10394746;28;20210;-81
2022/09/23 04:34:11;;;;;;;9.30;8.70;;;10.40;99.00;;;;;;10409307;28;20503;-78
2022/09/23 04:39:16;;;;;;;8.43;7.93;;;10.30;99.40;;;;;;10370178;28;20663;-78
2022/09/23 04:44:20;;;;;;;9.47;8.87;;;10.30;99.40;;;;;;10363306;28;20206;-79
2022/09/23 04:49:22;;;;;;;8.40;7.77;;;10.30;99.70;;;;;;10390774;28;20218;-79
2022/09/23 04:54:26;;;;;;;9.43;8.83;;;10.30;99.20;;;;;;10395263;28;20262;-78
2022/09/23 04:59:29;;;;;;;7.40;6.90;;;10.30;99.20;;;;;;10399150;28;20760;-80
2022/09/23 05:04:31;;;;;;;8.20;7.50;;;10.30;99.80;;;;;;10414759;28;20210;-79
2022/09/23 05:09:34;;;;;;;8.73;7.93;;;10.30;99.90;;;;;;10390443;28;20225;-78
2022/09/23 05:14:37;;;;;;;8.07;7.57;;;10.30;99.90;;;;;;10406332;28;20309;-77
2022/09/23 05:19:39;;;;;;;7.67;7.07;;;10.30;99.90;;;;;;10388487;28;20226;-79
2022/09/23 05:24:43;;;;;;;6.60;6.10;;;10.40;99.40;;;;;;10407453;28;20199;-78
2022/09/23 05:29:46;;;;;;;8.83;8.23;;;10.40;99.20;;;;;;10385091;28;20226;-78
2022/09/23 05:34:48;;;;;;;8.17;7.63;;;10.40;99.60;;;;;;10401564;28;20201;-79
2022/09/23 05:39:51;;;;;;;8.63;7.37;;;10.30;99.90;;;;;;10364904;28;20695;-77
2022/09/23 05:44:55;;;;;;;10.33;8.63;;;10.40;99.80;;;;;;10356066;28;20576;-78
2022/09/23 05:49:57;;;;;;;8.67;7.70;;;10.40;99.90;;;;;;10401326;28;20210;-78
2022/09/23 05:55:00;;;;;;;7.90;7.23;;;10.50;99.50;;;;;;10380788;28;20221;-77
2022/09/23 06:00:03;;;;;;;9.00;8.30;;;10.50;99.50;;;;;;10384426;28;20228;-77
2022/09/23 06:05:14;;;;;;;9.27;8.57;;;10.50;99.90;;;;;;10404852;28;20207;-78
2022/09/23 06:10:17;;;;;;;8.77;8.20;;;10.60;99.90;;;;;;10385670;28;20209;-77
2022/09/23 06:15:19;;;;;;;7.07;6.50;;;10.70;99.90;;;;;;10408213;28;20206;-77
2022/09/23 06:20:21;;;;;;;10.57;9.40;;;10.80;99.90;;;;;;10385441;28;20229;-78
2022/09/23 06:25:25;;;;;;;9.80;9.03;;;10.80;99.90;;;;;;10410136;28;20203;-78
2022/09/23 06:30:27;;;;;;;9.90;9.17;;;10.90;99.90;;;;;;10392608;28;20308;-77
2022/09/23 06:35:31;;;;;;;9.13;8.43;;;11.00;99.90;;;;;;10420783;28;20289;-77
2022/09/23 06:40:34;;;;;;;22.50;14.27;;;11.10;99.90;;;;;;10385040;28;20272;-77
2022/09/23 06:45:36;;;;;;;14.30;12.07;;;11.20;99.90;;;;;;10411461;28;20203;-80
2022/09/23 06:50:39;;;;;;;10.67;9.67;;;11.30;99.90;;;;;;10387395;28;20217;-78
2022/09/23 06:55:43;;;;;;;15.03;12.53;;;11.40;99.90;;;;;;10414688;28;20194;-77
2022/09/23 07:00:45;;;;;;;11.33;10.33;;;11.50;99.90;;;;;;10408020;28;20721;-78
2022/09/23 07:05:47;;;;;;;14.20;11.10;;;11.60;99.90;;;;;;10380122;28;20281;-78
2022/09/23 07:10:53;;;;;;;11.50;10.50;;;11.70;99.90;;;;;;10428530;28;20294;-79
2022/09/23 07:15:57;;;;;;;10.97;10.17;;;11.80;99.90;;;;;;10382531;28;20197;-80
2022/09/23 07:21:06;;;;;;;10.20;9.50;;;11.90;99.90;;;;;;10412715;28;20194;-81
2022/09/23 07:26:09;;;;;;;9.93;8.90;;;12.00;99.90;;;;;;10384923;28;20237;-81
2022/09/23 07:31:13;;;;;;;11.83;10.83;;;12.20;99.90;;;;;;10413759;28;20195;-80
2022/09/23 07:36:18;;;;;;;10.60;9.70;;;12.40;99.90;;;;;;10380896;28;20318;-79
2022/09/23 07:41:21;;;;;;;11.90;10.70;;;12.60;99.80;;;;;;10404440;28;20677;-79
2022/09/23 07:46:23;;;;;;;11.20;10.40;;;12.90;99.80;;;;;;10378700;28;20267;-78
2022/09/23 07:51:28;;;;;;;13.30;11.70;;;13.20;99.80;;;;;;10416075;28;20530;-78
2022/09/23 07:56:36;;;;;;;10.57;9.60;;;13.40;99.40;;;;;;10410177;28;20283;-78
2022/09/23 08:01:40;;;;;;;10.70;9.90;;;13.70;98.30;;;;;;10410030;28;20677;-77
2022/09/23 08:06:43;;;;;;;9.80;9.00;;;13.90;97.30;;;;;;10380489;28;20225;-78
2022/09/23 08:11:46;;;;;;;10.47;9.60;;;14.00;97.20;;;;;;10409053;28;20195;-80
2022/09/23 08:16:49;;;;;;;9.47;8.70;;;14.20;97.20;;;;;;10380283;28;20222;-79
2022/09/23 08:21:53;;;;;;;9.40;8.80;;;14.40;97.20;;;;;;10410673;28;20195;-80
2022/09/23 08:26:56;;;;;;;10.03;9.23;;;14.60;97.30;;;;;;10374139;28;20215;-78
2022/09/23 08:32:00;;;;;;;10.23;9.30;;;14.80;96.70;;;;;;10366156;28;20651;-78
2022/09/23 08:37:04;;;;;;;9.77;9.00;;;14.90;96.80;;;;;;10412342;28;20233;-78
2022/09/23 08:42:17;;;;;;;10.27;9.57;;;15.00;95.70;;;;;;10381321;28;20724;-77
2022/09/23 08:47:24;;;;;;;7.60;7.20;;;15.20;96.10;;;;;;10412087;28;20210;-77
2022/09/23 08:52:33;;;;;;;8.47;7.97;;;15.30;95.60;;;;;;10382529;28;20194;-77
2022/09/23 08:57:45;;;;;;;7.87;7.27;;;15.40;95.60;;;;;;10399605;28;20218;-78
2022/09/23 09:02:48;;;;;;;9.53;8.73;;;15.50;95.50;;;;;;10404407;28;20213;-76
2022/09/23 09:07:50;;;;;;;8.43;7.77;;;15.70;95.50;;;;;;10380407;28;20315;-76
2022/09/23 09:13:03;;;;;;;7.77;7.27;;;15.80;95.60;;;;;;10406558;28;20309;-80
2022/09/23 09:18:07;;;;;;;7.40;6.90;;;15.90;95.40;;;;;;10416761;22;20230;-79
2022/09/23 09:23:21;;;;;;;7.90;7.40;;;15.90;95.70;;;;;;10425310;28;20190;-80
2022/09/23 09:28:29;;;;;;;7.20;6.63;;;16.00;95.50;;;;;;10400090;28;20317;-79
2022/09/23 09:33:38;;;;;;;7.80;7.30;;;16.10;94.80;;;;;;10403994;28;20205;-79
2022/09/23 09:38:40;;;;;;;7.57;7.17;;;16.10;94.60;;;;;;10420922;28;20583;-79
2022/09/23 09:43:56;;;;;;;8.53;8.03;;;16.30;94.50;;;;;;10388199;28;20284;-79
2022/09/23 09:49:02;;;;;;;7.40;6.90;;;16.40;95.40;;;;;;10419252;28;20301;-78
2022/09/23 09:54:17;;;;;;;8.60;7.90;;;16.60;95.10;;;;;;10401544;28;20198;-79
2022/09/23 09:59:27;;;;;;;7.73;7.23;;;16.70;94.90;;;;;;10393825;28;20229;-78
2022/09/23 10:04:34;;;;;;;7.50;7.10;;;16.90;94.70;;;;;;10389553;28;20201;-79
2022/09/23 10:09:38;;;;;;;6.80;6.50;;;16.90;93.90;;;;;;10405835;28;20214;-79
2022/09/23 10:14:41;;;;;;;7.40;6.83;;;16.80;94.70;;;;;;10388753;28;20229;-79
2022/09/23 10:19:47;;;;;;;7.90;7.40;;;16.60;94.90;;;;;;10403961;28;20644;-80
2022/09/23 10:24:52;;;;;;;9.03;8.30;;;16.60;93.90;;;;;;10387859;28;20280;-79
2022/09/23 10:29:58;;;;;;;13.70;7.80;;;16.50;94.40;;;;;;10403355;28;20246;-80
2022/09/23 10:35:12;;;;;;;14.57;12.93;;;16.50;94.60;;;;;;10390134;28;20248;-79
2022/09/23 10:51:15;;;;;;;8.43;7.93;;;16.70;94.10;;;;;;10398914;28;20218;-79
2022/09/23 10:56:30;;;;;;;8.30;7.70;;;17.00;94.40;;;;;;10388114;28;20201;-79
2022/09/23 11:01:42;;;;;;;8.30;7.70;;;17.10;93.70;;;;;;10380246;28;20724;-79
2022/09/23 11:07:00;;;;;;;9.30;8.50;;;17.10;94.20;;;;;;10392710;28;20309;-80
2022/09/23 11:12:11;;;;;;;9.00;8.40;;;17.10;94.10;;;;;;10402543;28;20197;-80
2022/09/23 11:17:41;;;;;;;7.87;7.40;;;17.00;93.60;;;;;;10391763;28;20226;-80
2022/09/23 11:22:57;;;;;;;10.03;8.00;;;17.00;93.80;;;;;;10375339;28;20724;-80
2022/09/23 11:28:32;;;;;;;7.63;7.13;;;16.90;94.20;;;;;;10394372;28;20220;-80
2022/09/23 11:33:51;;;;;;;8.10;7.57;;;16.80;93.90;;;;;;10418774;28;20296;-80
2022/09/23 11:38:57;;;;;;;8.23;7.73;;;16.70;94.80;;;;;;10387945;28;20226;-79
2022/09/23 11:44:03;;;;;;;7.77;7.17;;;16.70;94.50;;;;;;10402862;28;20220;-79
2022/09/23 11:49:14;;;;;;;6.97;6.57;;;16.70;94.40;;;;;;10368723;28;20228;-79
2022/09/23 11:54:21;;;;;;;8.23;7.57;;;16.70;95.10;;;;;;10419788;28;20662;-79
2022/09/23 11:59:31;;;;;;;7.33;6.83;;;16.80;94.50;;;;;;10420323;28;20241;-79
2022/09/23 12:04:39;;;;;;;5.90;5.60;;;16.80;94.10;;;;;;10383501;28;20205;-79
2022/09/23 12:09:50;;;;;;;12.20;10.57;;;16.80;93.70;;;;;;10419720;28;20296;-79
2022/09/23 12:14:58;;;;;;;13.63;12.53;;;16.80;93.00;;;;;;10381267;28;20226;-79
2022/09/23 12:20:18;;;;;;;7.40;6.90;;;16.80;93.70;;;;;;10421279;28;20261;-79
2022/09/23 12:25:37;;;;;;;7.50;7.10;;;16.80;93.00;;;;;;10340638;28;20205;-79
2022/09/23 12:30:41;;;;;;;8.33;7.73;;;16.90;92.60;;;;;;10402798;28;20709;-79
2022/09/23 12:35:46;;;;;;;7.83;7.23;;;17.00;92.90;;;;;;10364702;28;20195;-79
2022/09/23 12:40:51;;;;;;;7.77;6.97;;;17.00;93.90;;;;;;10420314;28;20226;-80
2022/09/23 12:45:53;;;;;;;9.23;8.53;;;17.00;94.40;;;;;;10383426;28;20229;-80
2022/09/23 12:51:14;;;;;;;7.80;7.30;;;16.90;94.40;;;;;;10422281;28;20610;-80
2022/09/23 12:56:19;;;;;;;8.03;7.43;;;17.00;94.00;;;;;;10386108;28;20201;-80
2022/09/23 13:01:23;;;;;;;8.17;7.67;;;17.00;94.50;;;;;;10385477;28;20563;-80
2022/09/23 13:06:39;;;;;;;9.40;8.53;;;17.00;94.80;;;;;;10402470;28;20195;-80
2022/09/23 13:11:46;;;;;;;8.50;7.83;;;17.10;93.70;;;;;;10388523;28;20703;-80
2022/09/23 13:16:49;;;;;;;7.90;7.40;;;17.20;93.60;;;;;;10419763;28;20230;-80
2022/09/23 13:22:07;;;;;;;8.73;8.13;;;17.20;93.60;;;;;;10392427;28;20220;-80
2022/09/23 13:27:26;;;;;;;10.40;9.70;;;17.30;93.70;;;;;;10424202;28;20225;-80
2022/09/23 13:32:32;;;;;;;8.80;8.03;;;17.30;93.50;;;;;;10391361;28;20224;-80
2022/09/23 13:37:45;;;;;;;9.00;8.27;;;17.30;93.40;;;;;;10414464;28;20309;-80
2022/09/23 13:42:51;;;;;;;9.37;8.47;;;17.30;93.40;;;;;;10391538;28;20201;-80
2022/09/23 13:47:59;;;;;;;7.97;7.47;;;17.40;92.90;;;;;;10410120;28;20298;-80
2022/09/23 13:53:08;;;;;;;8.40;7.70;;;17.40;93.10;;;;;;10373075;28;20670;-80
2022/09/23 13:58:18;;;;;;;8.13;7.63;;;17.50;93.30;;;;;;10406135;28;20244;-80
2022/09/23 14:03:26;;;;;;;9.37;8.70;;;17.60;93.70;;;;;;10408703;28;20194;-80
2022/09/23 14:08:31;;;;;;;9.03;8.43;;;17.70;93.50;;;;;;10393106;28;20753;-80
2022/09/23 14:13:40;;;;;;;8.83;8.13;;;17.70;93.50;;;;;;10408474;28;20194;-80
2022/09/23 14:18:45;;;;;;;8.00;7.40;;;17.70;93.20;;;;;;10390991;28;20787;-80
2022/09/23 14:23:48;;;;;;;8.53;7.63;;;17.80;92.80;;;;;;10390497;28;20680;-80
2022/09/23 14:28:51;;;;;;;9.77;9.07;;;17.90;93.60;;;;;;10392462;28;20218;-80
2022/09/23 14:33:53;;;;;;;10.40;9.40;;;17.90;92.70;;;;;;10408164;28;20195;-79
2022/09/23 14:39:04;;;;;;;6.37;5.97;;;17.90;92.50;;;;;;10392757;28;20273;-80
2022/09/23 14:44:07;;;;;;;8.13;7.53;;;18.00;93.10;;;;;;10403666;28;20213;-80
2022/09/23 14:49:16;;;;;;;8.10;7.43;;;18.00;93.20;;;;;;10368977;28;20265;-79
2022/09/23 14:54:41;;;;;;;9.27;8.53;;;17.90;94.00;;;;;;10411921;28;20778;-80
2022/09/23 14:59:51;;;;;;;7.77;7.27;;;17.80;93.00;;;;;;10402881;28;20227;-80
2022/09/23 15:05:07;;;;;;;8.13;7.53;;;17.70;93.10;;;;;;10395704;28;20198;-80
2022/09/23 15:10:18;;;;;;;7.80;7.10;;;17.70;93.70;;;;;;10398625;28;20218;-80
2022/09/23 15:15:27;;;;;;;7.73;7.23;;;17.60;93.30;;;;;;10394545;28;20197;-80
2022/09/23 15:20:29;;;;;;;7.70;7.10;;;17.70;94.80;;;;;;10423937;23;20225;-79
2022/09/23 15:25:35;;;;;;;7.90;7.40;;;17.60;94.70;;;;;;10395768;28;20649;-78
2022/09/23 15:30:38;;;;;;;7.00;6.60;;;17.50;95.10;;;;;;10360048;28;20285;-78
2022/09/23 15:35:44;;;;;;;7.33;6.93;;;17.40;95.90;;;;;;10355378;28;20483;-79
2022/09/23 15:40:48;;;;;;;8.53;8.00;;;17.30;95.60;;;;;;10353709;28;20639;-79
2022/09/23 15:45:52;;;;;;;11.90;7.73;;;17.30;95.60;;;;;;10356345;28;20282;-78
2022/09/23 15:50:54;;;;;;;8.50;7.90;;;17.30;96.00;;;;;;10350216;28;20221;-79
2022/09/23 15:55:58;;;;;;;8.03;7.43;;;17.20;96.10;;;;;;10363388;28;20353;-78
2022/09/23 16:01:01;;;;;;;8.67;8.07;;;17.20;96.30;;;;;;10354526;28;20311;-78
2022/09/23 16:06:05;;;;;;;8.30;7.70;;;17.10;96.60;;;;;;10352239;28;20659;-78
2022/09/23 16:11:14;;;;;;;7.97;7.40;;;17.10;96.50;;;;;;10372009;28;20318;-78
2022/09/23 16:16:18;;;;;;;8.10;7.40;;;17.10;96.20;;;;;;10373276;28;20191;-78
2022/09/23 16:21:23;;;;;;;7.53;6.90;;;17.10;96.30;;;;;;10362411;28;20215;-78
2022/09/23 16:26:29;;;;;;;7.63;7.03;;;17.10;96.40;;;;;;10357707;28;20234;-78
2022/09/23 16:31:31;;;;;;;7.87;7.17;;;17.00;97.00;;;;;;10363393;28;20206;-78
2022/09/23 16:36:35;;;;;;;8.60;7.90;;;17.00;97.30;;;;;;10337417;28;20199;-78
2022/09/23 16:41:46;;;;;;;8.30;7.60;;;16.90;96.90;;;;;;10358437;28;20265;-78
2022/09/23 16:46:49;;;;;;;9.77;8.97;;;16.90;97.70;;;;;;10354527;28;20655;-77
2022/09/23 16:51:51;;;;;;;8.47;7.80;;;16.80;97.40;;;;;;10358484;28;20203;-78
2022/09/23 16:56:54;;;;;;;8.50;7.90;;;16.80;97.60;;;;;;10337089;28;20219;-78
2022/09/23 17:07:16;;;;;;;11.17;8.90;;;16.70;98.40;;;;;;10351968;28;20214;-75
2022/09/23 17:12:26;;;;;;;8.20;7.53;;;16.70;98.50;;;;;;10354190;28;20186;-77
2022/09/23 17:17:28;;;;;;;8.73;8.13;;;16.60;98.70;;;;;;10357779;28;20582;-77
2022/09/23 17:22:30;;;;;;;9.37;6.77;;;16.50;99.00;;;;;;10351720;28;20241;-77
2022/09/23 17:27:36;;;;;;;9.00;8.40;;;16.40;98.80;;;;;;10353464;28;20215;-76
2022/09/23 17:32:38;;;;;;;8.30;7.60;;;16.30;99.00;;;;;;10349402;28;20194;-77
2022/09/23 17:37:40;;;;;;;8.27;7.57;;;16.20;99.10;;;;;;10353490;28;20223;-78
2022/09/23 17:42:43;;;;;;;8.50;7.70;;;16.10;99.20;;;;;;10347259;28;20222;-77
2022/09/23 17:47:53;;;;;;;12.57;11.13;;;16.10;99.20;;;;;;10353916;28;20714;-76
2022/09/23 17:52:55;;;;;;;13.33;12.10;;;16.00;99.20;;;;;;10348312;28;20679;-76
2022/09/23 17:57:59;;;;;;;9.40;8.60;;;16.00;99.20;;;;;;10364570;28;20301;-77
2022/09/23 18:03:01;;;;;;;9.10;8.50;;;15.90;99.40;;;;;;10352180;28;20207;-77
2022/09/23 18:08:03;;;;;;;9.93;9.23;;;15.80;99.30;;;;;;10346235;28;20218;-77
2022/09/23 18:13:06;;;;;;;11.03;10.23;;;15.70;99.50;;;;;;10353201;28;20751;-77
2022/09/23 18:18:08;;;;;;;8.40;7.80;;;15.60;99.60;;;;;;10343626;28;20253;-78
2022/09/23 18:23:11;;;;;;;8.60;8.00;;;15.60;99.50;;;;;;10336003;28;20663;-78
2022/09/23 18:28:14;;;;;;;8.47;7.87;;;15.50;99.40;;;;;;10344386;28;20272;-78
2022/09/23 18:33:16;;;;;;;9.90;9.10;;;15.50;99.60;;;;;;10352315;28;20290;-76
2022/09/23 18:38:19;;;;;;;10.13;8.83;;;15.40;99.50;;;;;;10343568;28;20220;-77
2022/09/23 18:43:23;;;;;;;9.80;9.10;;;15.40;99.90;;;;;;10354422;28;20217;-77
2022/09/23 18:53:46;;;;;;;9.23;8.33;;;15.30;99.70;;;;;;10352541;28;20193;-76
2022/09/23 18:58:51;;;;;;;7.93;7.23;;;15.30;99.90;;;;;;10340811;28;20277;-78
2022/09/23 19:03:57;;;;;;;9.73;8.17;;;15.30;99.90;;;;;;10344331;28;20205;-78
2022/09/23 19:08:59;;;;;;;11.50;10.40;;;15.30;99.90;;;;;;10352644;28;20266;-77
2022/09/23 19:14:05;;;;;;;8.23;7.43;;;15.30;99.90;;;;;;10350646;28;20201;-78
2022/09/23 19:19:07;;;;;;;10.17;9.27;;;15.30;99.90;;;;;;10369143;28;20230;-80
2022/09/23 19:24:14;;;;;;;9.70;8.97;;;15.30;99.90;;;;;;10357294;28;20682;-77
2022/09/23 19:29:20;;;;;;;10.13;9.30;;;15.30;99.90;;;;;;10371741;28;20215;-79
2022/09/23 19:34:24;;;;;;;9.73;9.03;;;15.30;99.90;;;;;;10347586;28;20203;-81
2022/09/23 19:39:30;;;;;;;10.50;9.57;;;15.30;99.90;;;;;;10357936;28;20215;-79
2022/09/23 19:44:38;;;;;;;10.80;9.90;;;15.30;99.90;;;;;;10350468;28;20202;-79
2022/09/23 19:49:40;;;;;;;12.50;11.43;;;15.30;99.90;;;;;;10362934;28;20230;-81
2022/09/23 19:54:42;;;;;;;11.23;10.30;;;15.20;99.90;;;;;;10361246;28;20209;-81
2022/09/23 19:59:45;;;;;;;12.57;11.47;;;15.20;99.90;;;;;;10363363;28;20301;-82
2022/09/23 20:04:50;;;;;;;11.30;10.30;;;15.20;99.90;;;;;;10368821;28;20274;-78
2022/09/23 20:09:52;;;;;;;11.43;10.27;;;15.10;99.90;;;;;;10351371;28;20214;-79
2022/09/23 20:14:55;;;;;;;10.27;9.27;;;15.10;99.90;;;;;;10359657;28;20204;-79
2022/09/23 20:19:58;;;;;;;12.97;11.77;;;15.10;99.90;;;;;;10348941;28;20230;-79
2022/09/23 20:25:01;;;;;;;12.23;11.17;;;15.00;99.90;;;;;;10361893;28;20234;-77
2022/09/23 20:30:05;;;;;;;10.70;9.83;;;15.00;99.90;;;;;;10347637;28;20831;-77
2022/09/23 20:35:08;;;;;;;7.37;6.80;;;15.00;99.90;;;;;;10359855;28;20747;-76
2022/09/23 20:40:10;;;;;;;9.37;8.60;;;14.90;99.90;;;;;;10347012;28;20309;-79
2022/09/23 20:45:15;;;;;;;10.10;9.20;;;14.90;99.90;;;;;;10360179;28;20202;-78
2022/09/23 20:50:18;;;;;;;9.40;8.60;;;14.90;99.90;;;;;;10346269;28;20686;-77
2022/09/23 20:55:20;;;;;;;7.80;7.00;;;14.90;99.90;;;;;;10359711;28;20207;-78
2022/09/23 21:00:23;;;;;;;8.93;6.40;;;14.90;99.90;;;;;;10359123;28;20223;-77
2022/09/23 21:05:25;;;;;;;7.40;6.60;;;14.90;99.90;;;;;;10344318;28;20199;-78
2022/09/23 21:10:28;;;;;;;7.87;7.23;;;14.90;99.90;;;;;;10359599;28;20216;-77
2022/09/23 21:15:33;;;;;;;7.37;6.83;;;14.80;99.90;;;;;;10344639;28;20220;-77
2022/09/23 21:20:35;;;;;;;6.17;5.60;;;14.80;99.90;;;;;;10364463;28;20219;-78
2022/09/23 21:25:38;;;;;;;6.37;5.97;;;14.70;99.90;;;;;;10352234;28;20718;-79
2022/09/23 21:30:42;;;;;;;18.90;13.93;;;14.70;99.90;;;;;;10370471;28;20250;-80
2022/09/23 21:35:44;;;;;;;5.63;5.23;;;14.60;99.90;;;;;;10352482;28;20202;-79
2022/09/23 21:40:55;;;;;;;20.63;17.20;;;14.60;99.90;;;;;;10366337;28;20216;-77
2022/09/23 21:46:01;;;;;;;7.73;7.13;;;14.60;99.90;;;;;;10345575;28;20203;-78
2022/09/23 21:51:04;;;;;;;5.87;5.47;;;14.60;99.90;;;;;;10365215;28;20588;-78
2022/09/23 21:56:09;;;;;;;7.47;6.87;;;14.60;99.90;;;;;;10346877;28;20209;-78
2022/09/23 22:01:14;;;;;;;6.47;5.70;;;14.60;99.90;;;;;;10329247;28;20223;-78
2022/09/23 22:06:19;;;;;;;6.30;5.80;;;14.60;99.90;;;;;;10344682;28;20759;-77
2022/09/23 22:16:44;;;;;;;8.53;6.60;;;14.50;99.90;;;;;;10347610;28;20281;-78
2022/09/23 22:21:48;;;;;;;6.50;6.10;;;14.50;99.90;;;;;;10361069;28;20250;-77
2022/09/23 22:26:50;;;;;;;12.10;7.63;;;14.50;99.90;;;;;;10351517;28;20738;-77
2022/09/23 22:37:18;;;;;;;9.13;8.30;;;14.40;99.90;;;;;;10348690;28;20233;-79
2022/09/23 22:42:21;;;;;;;8.10;7.50;;;14.40;99.90;;;;;;10360323;28;20215;-79
2022/09/23 22:47:25;;;;;;;7.07;6.57;;;14.40;99.90;;;;;;10349257;28;20261;-80
2022/09/23 22:52:27;;;;;;;8.20;7.57;;;14.40;99.90;;;;;;10361062;28;20270;-79
2022/09/23 22:57:30;;;;;;;7.30;6.63;;;14.30;99.90;;;;;;10340708;28;20671;-80
2022/09/23 23:02:33;;;;;;;6.87;6.27;;;14.30;99.90;;;;;;10349405;28;20218;-78
2022/09/23 23:07:36;;;;;;;6.60;6.10;;;14.30;99.90;;;;;;10362249;28;20289;-80
2022/09/23 23:12:38;;;;;;;6.00;5.50;;;14.30;99.90;;;;;;10349952;28;20195;-80
2022/09/23 23:17:42;;;;;;;5.77;5.37;;;14.30;99.90;;;;;;10364465;28;20219;-78
2022/09/23 23:22:44;;;;;;;7.03;6.43;;;14.30;99.90;;;;;;10357117;28;20226;-79
2022/09/23 23:27:47;;;;;;;6.47;6.03;;;14.30;99.90;;;;;;10370226;28;20219;-79
2022/09/23 23:32:50;;;;;;;6.20;5.67;;;14.40;99.90;;;;;;10354302;28;20237;-80
2022/09/23 23:37:52;;;;;;;6.93;6.43;;;14.40;99.90;;;;;;10372231;28;20226;-80
2022/09/23 23:42:54;;;;;;;6.80;6.30;;;14.40;99.90;;;;;;10353947;28;20223;-80
2022/09/23 23:47:58;;;;;;;6.20;5.70;;;14.40;99.90;;;;;;10370193;28;20250;-81
2022/09/23 23:53:00;;;;;;;10.20;9.30;;;14.50;99.90;;;;;;10352224;28;20213;-80
2022/09/23 23:58:02;;;;;;;6.47;5.77;;;14.50;99.90;;;;;;10373259;28;20305;-78
